Time;durP1;ratioP1;P1;durP2;ratioP2;P2;SDS_P1;SDS_P2;PMS_P1;PMS_P2;Temp;Humidity;BMP_temperature;BMP_pressure;BME280_temperature;BME280_humidity;BME280_pressure;Samples;Min_cycle;Max_cycle;Signal;HPM_P1;HPM_P2
2022/12/21 00:01:33;;;;;;;;;;;19.20;48.90;;;;;;4952770;29;19914;-52
2022/12/21 00:03:59;;;;;;;;;;;19.10;48.90;;;;;;4951944;29;20429;-51
2022/12/21 00:06:25;;;;;;;;;;;19.10;49.00;;;;;;4952380;29;19930;-52
2022/12/21 00:08:51;;;;;;;;;;;19.10;49.00;;;;;;4952379;28;20409;-51
2022/12/21 00:11:17;;;;;;;;;;;19.00;49.70;;;;;;4952848;28;19954;-52
2022/12/21 00:13:42;;;;;;;;;;;19.00;49.00;;;;;;4956281;28;19915;-53
2022/12/21 00:16:14;;;;;;;;;;;19.00;49.00;;;;;;4953253;29;19937;-54
2022/12/21 00:18:40;;;;;;;;;;;19.00;49.10;;;;;;4952364;29;19910;-53
2022/12/21 00:21:13;;;;;;;;;;;19.00;49.20;;;;;;4951276;28;19997;-53
2022/12/21 00:23:39;;;;;;;;;;;18.90;49.30;;;;;;4952568;28;19918;-53
2022/12/21 00:26:04;;;;;;;;;;;18.90;49.30;;;;;;4952173;28;20419;-53
2022/12/21 00:28:30;;;;;;;;;;;18.90;49.60;;;;;;4950995;29;20017;-53
2022/12/21 00:31:02;;;;;;;;;;;18.90;49.30;;;;;;4952440;29;20044;-53
2022/12/21 00:33:27;;;;;;;;;;;18.90;49.30;;;;;;4958455;28;20386;-53
2022/12/21 00:35:52;;;;;;;;;;;18.80;49.40;;;;;;4945343;28;19921;-52
2022/12/21 00:38:18;;;;;;;;;;;18.80;49.40;;;;;;4952153;29;19968;-52
2022/12/21 00:40:44;;;;;;;;;;;18.80;49.60;;;;;;4952571;28;19918;-53
2022/12/21 00:43:09;;;;;;;;;;;18.80;49.60;;;;;;4951397;29;19919;-52
2022/12/21 00:45:34;;;;;;;;;;;18.80;49.70;;;;;;4951634;29;20372;-52
2022/12/21 00:48:00;;;;;;;;;;;18.70;49.60;;;;;;4952499;28;19937;-52
2022/12/21 00:50:26;;;;;;;;;;;18.70;49.80;;;;;;4951258;28;20009;-52
2022/12/21 00:52:51;;;;;;;;;;;18.70;49.90;;;;;;4969787;28;20293;-53
2022/12/21 00:55:17;;;;;;;;;;;18.70;50.00;;;;;;4951421;28;19964;-53
2022/12/21 00:57:42;;;;;;;;;;;18.60;49.90;;;;;;4950891;28;19923;-53
2022/12/21 01:00:09;;;;;;;;;;;18.60;50.00;;;;;;4951123;28;19921;-53
2022/12/21 01:02:35;;;;;;;;;;;18.60;50.10;;;;;;4942305;28;19929;-53
2022/12/21 01:05:01;;;;;;;;;;;18.50;50.20;;;;;;4951484;28;19919;-53
2022/12/21 01:07:27;;;;;;;;;;;18.50;50.30;;;;;;4951459;28;19922;-53
2022/12/21 01:09:52;;;;;;;;;;;18.50;50.30;;;;;;4951383;28;19915;-52
2022/12/21 01:12:18;;;;;;;;;;;18.40;50.50;;;;;;4950932;28;19915;-52
2022/12/21 01:14:43;;;;;;;;;;;18.40;50.50;;;;;;4951000;29;19918;-51
2022/12/21 01:17:08;;;;;;;;;;;18.40;50.60;;;;;;4951896;28;19952;-51
2022/12/21 01:19:34;;;;;;;;;;;18.40;50.60;;;;;;4950068;28;20051;-52
2022/12/21 01:21:59;;;;;;;;;;;18.40;50.60;;;;;;4950846;28;19926;-52
2022/12/21 01:24:25;;;;;;;;;;;18.30;50.60;;;;;;4951383;28;20305;-52
2022/12/21 01:26:50;;;;;;;;;;;18.30;50.60;;;;;;4951899;28;20396;-53
2022/12/21 01:29:16;;;;;;;;;;;18.30;50.60;;;;;;4951093;28;19926;-52
2022/12/21 01:31:41;;;;;;;;;;;18.30;50.60;;;;;;4948434;29;19922;-52
2022/12/21 01:34:07;;;;;;;;;;;18.30;50.70;;;;;;4951671;28;20007;-52
2022/12/21 01:36:32;;;;;;;;;;;18.30;50.80;;;;;;4950780;28;19918;-52
2022/12/21 01:38:58;;;;;;;;;;;18.30;50.80;;;;;;4950627;28;19921;-52
2022/12/21 01:41:24;;;;;;;;;;;18.30;50.70;;;;;;4951430;28;20365;-52
2022/12/21 01:43:59;;;;;;;;;;;18.30;50.90;;;;;;4950675;29;20459;-52
2022/12/21 01:46:32;;;;;;;;;;;18.30;50.80;;;;;;4951398;29;19919;-52
2022/12/21 01:49:01;;;;;;;;;;;18.30;50.80;;;;;;4930930;29;20370;-52
2022/12/21 01:51:26;;;;;;;;;;;18.20;50.70;;;;;;4954695;28;19960;-52
2022/12/21 01:53:55;;;;;;;;;;;18.20;50.90;;;;;;4951201;29;19997;-52
2022/12/21 01:56:22;;;;;;;;;;;18.20;50.80;;;;;;4933852;29;19921;-52
2022/12/21 01:58:47;;;;;;;;;;;18.20;51.50;;;;;;4950747;29;19914;-52
2022/12/21 02:01:13;;;;;;;;;;;18.20;50.90;;;;;;4951289;28;19921;-51
2022/12/21 02:03:40;;;;;;;;;;;18.20;51.00;;;;;;4951021;28;19933;-52
2022/12/21 02:06:09;;;;;;;;;;;18.10;50.90;;;;;;4949607;29;19922;-51
2022/12/21 02:08:35;;;;;;;;;;;18.20;50.90;;;;;;4939368;28;20048;-52
2022/12/21 02:11:00;;;;;;;;;;;18.10;50.90;;;;;;4947117;28;19918;-52
2022/12/21 02:13:26;;;;;;;;;;;18.20;50.90;;;;;;4948950;28;20009;-52
2022/12/21 02:16:07;;;;;;;;;;;18.20;50.70;;;;;;4951092;29;19930;-54
2022/12/21 02:18:51;;;;;;;;;;;18.40;50.30;;;;;;4950842;29;19914;-51
2022/12/21 02:21:17;;;;;;;;;;;18.70;49.70;;;;;;4951525;28;19922;-52
2022/12/21 02:23:55;;;;;;;;;;;19.10;48.90;;;;;;4937106;29;19977;-52
2022/12/21 02:26:30;;;;;;;;;;;19.40;48.10;;;;;;4952792;28;20342;-52
2022/12/21 02:28:55;;;;;;;;;;;19.80;47.40;;;;;;4954043;28;19938;-52
2022/12/21 02:31:38;;;;;;;;;;;20.30;46.40;;;;;;4952808;28;19918;-53
2022/12/21 02:34:22;;;;;;;;;;;21.00;45.20;;;;;;4953741;28;19915;-52
2022/12/21 02:36:52;;;;;;;;;;;21.60;44.10;;;;;;4954453;28;20302;-54
2022/12/21 02:39:23;;;;;;;;;;;22.20;43.30;;;;;;4944230;29;20359;-52
2022/12/21 02:41:54;;;;;;;;;;;22.50;42.30;;;;;;4953284;29;20023;-52
2022/12/21 02:44:24;;;;;;;;;;;22.70;41.80;;;;;;4953730;29;19930;-51
2022/12/21 02:46:53;;;;;;;;;;;22.90;41.60;;;;;;4953695;28;20354;-52
2022/12/21 02:49:23;;;;;;;;;;;22.90;41.60;;;;;;4953542;28;19925;-52
2022/12/21 02:51:55;;;;;;;;;;;22.80;41.70;;;;;;4971027;28;20386;-52
2022/12/21 02:54:20;;;;;;;;;;;22.60;42.00;;;;;;4943531;28;19922;-53
2022/12/21 02:56:46;;;;;;;;;;;22.40;42.60;;;;;;4939935;28;19914;-51
2022/12/21 02:59:12;;;;;;;;;;;22.20;43.10;;;;;;4953444;28;19968;-53
2022/12/21 03:01:37;;;;;;;;;;;21.90;43.50;;;;;;4953920;29;19959;-54
2022/12/21 03:04:08;;;;;;;;;;;21.70;43.90;;;;;;4951719;28;20324;-52
2022/12/21 03:06:41;;;;;;;;;;;21.50;44.30;;;;;;4953098;29;20248;-52
2022/12/21 03:09:27;;;;;;;;;;;21.30;44.70;;;;;;4953650;29;19914;-52
2022/12/21 03:11:57;;;;;;;;;;;21.10;45.10;;;;;;4953429;29;20017;-52
2022/12/21 03:14:26;;;;;;;;;;;20.90;45.20;;;;;;4948163;28;20342;-52
2022/12/21 03:16:52;;;;;;;;;;;20.70;45.80;;;;;;4952896;28;19915;-53
2022/12/21 03:19:36;;;;;;;;;;;20.60;46.10;;;;;;4952578;28;20366;-54
2022/12/21 03:22:02;;;;;;;;;;;20.50;46.30;;;;;;4952306;28;19960;-53
2022/12/21 03:24:34;;;;;;;;;;;20.30;46.70;;;;;;4964392;28;19930;-53
2022/12/21 03:27:00;;;;;;;;;;;20.20;46.90;;;;;;4945224;29;19942;-53
2022/12/21 03:29:26;;;;;;;;;;;20.10;47.20;;;;;;4951834;29;20051;-52
2022/12/21 03:31:54;;;;;;;;;;;20.00;47.40;;;;;;4948890;28;20022;-52
2022/12/21 03:34:26;;;;;;;;;;;19.90;47.50;;;;;;4952835;28;20298;-52
2022/12/21 03:37:02;;;;;;;;;;;19.80;47.70;;;;;;4952919;28;19922;-52
2022/12/21 03:39:28;;;;;;;;;;;19.90;47.70;;;;;;4935465;29;19915;-53
2022/12/21 03:41:55;;;;;;;;;;;19.90;47.70;;;;;;4953418;28;20296;-52
2022/12/21 03:44:22;;;;;;;;;;;20.00;47.50;;;;;;4952498;29;19914;-52
2022/12/21 03:46:52;;;;;;;;;;;20.10;47.30;;;;;;4953301;28;19949;-52
2022/12/21 03:49:20;;;;;;;;;;;20.00;47.30;;;;;;4952193;29;19915;-52
2022/12/21 03:51:46;;;;;;;;;;;20.10;47.10;;;;;;4945668;29;19925;-52
2022/12/21 03:54:14;;;;;;;;;;;20.10;47.10;;;;;;4944731;28;19969;-51
2022/12/21 03:56:39;;;;;;;;;;;20.20;47.00;;;;;;4934440;28;19955;-53
2022/12/21 03:59:05;;;;;;;;;;;20.10;47.00;;;;;;4941090;29;19915;-52
2022/12/21 04:01:49;;;;;;;;;;;20.20;47.00;;;;;;4953101;29;20299;-52
2022/12/21 04:04:24;;;;;;;;;;;20.30;46.90;;;;;;4952067;28;19918;-53
2022/12/21 04:06:50;;;;;;;;;;;20.50;46.50;;;;;;4974923;28;19925;-53
2022/12/21 04:09:15;;;;;;;;;;;20.70;46.10;;;;;;4944626;28;19961;-52
2022/12/21 04:14:25;;;;;;;;;;;20.90;45.40;;;;;;4925690;29;20578;-52
2022/12/21 04:16:51;;;;;;;;;;;21.20;45.30;;;;;;4921012;28;19915;-52
2022/12/21 04:22:00;;;;;;;;;;;21.40;44.70;;;;;;4921666;28;20001;-53
2022/12/21 04:29:54;;;;;;;;;;;21.60;44.10;;;;;;4915057;29;19926;-52
2022/12/21 04:32:19;;;;;;;;;;;21.60;44.20;;;;;;4928438;28;19915;-51
2022/12/21 04:34:45;;;;;;;;;;;21.40;44.50;;;;;;4922664;28;20379;-54
2022/12/21 04:39:54;;;;;;;;;;;21.20;45.10;;;;;;4956235;28;20034;-52
2022/12/21 04:42:20;;;;;;;;;;;21.00;45.20;;;;;;4927125;29;19990;-52
2022/12/21 04:44:45;;;;;;;;;;;20.80;45.40;;;;;;4929758;29;19918;-52
2022/12/21 04:47:11;;;;;;;;;;;20.70;45.80;;;;;;4932997;28;19922;-52
2022/12/21 04:49:36;;;;;;;;;;;20.60;46.10;;;;;;4931501;28;20358;-52
2022/12/21 04:52:02;;;;;;;;;;;20.40;46.40;;;;;;4947929;28;19914;-52
2022/12/21 04:54:27;;;;;;;;;;;20.30;46.80;;;;;;4925318;28;19915;-52
2022/12/21 04:56:53;;;;;;;;;;;20.20;47.00;;;;;;4901960;28;20298;-52
2022/12/21 04:59:18;;;;;;;;;;;20.00;47.20;;;;;;4922683;29;20446;-52
2022/12/21 05:01:43;;;;;;;;;;;20.00;47.50;;;;;;4928604;28;20010;-52
2022/12/21 05:04:10;;;;;;;;;;;19.90;47.60;;;;;;4920512;28;19927;-52
2022/12/21 05:06:35;;;;;;;;;;;19.90;47.60;;;;;;4949368;29;19928;-52
2022/12/21 05:09:01;;;;;;;;;;;19.90;47.60;;;;;;4951287;28;20244;-51
2022/12/21 05:11:26;;;;;;;;;;;19.90;47.60;;;;;;4951411;28;19944;-52
2022/12/21 05:13:52;;;;;;;;;;;20.00;47.40;;;;;;4949051;28;19921;-52
2022/12/21 05:16:18;;;;;;;;;;;20.10;47.20;;;;;;4951935;28;20005;-52
2022/12/21 05:18:43;;;;;;;;;;;20.20;47.10;;;;;;4951662;28;19914;-52
2022/12/21 05:21:09;;;;;;;;;;;20.30;46.70;;;;;;4951316;29;19922;-52
2022/12/21 05:23:34;;;;;;;;;;;20.50;46.40;;;;;;4950931;29;20402;-52
2022/12/21 05:26:01;;;;;;;;;;;20.60;46.10;;;;;;4939293;28;19958;-52
2022/12/21 05:28:27;;;;;;;;;;;20.80;45.60;;;;;;4950577;29;20338;-52
2022/12/21 05:30:52;;;;;;;;;;;20.90;45.30;;;;;;4951758;28;19976;-53
2022/12/21 05:33:17;;;;;;;;;;;21.00;45.30;;;;;;4951542;28;19915;-52
2022/12/21 05:35:43;;;;;;;;;;;21.10;45.20;;;;;;4933598;28;19914;-52
2022/12/21 05:38:08;;;;;;;;;;;21.00;45.20;;;;;;4951075;29;20445;-52
2022/12/21 05:40:34;;;;;;;;;;;20.90;45.20;;;;;;4951348;28;20371;-53
2022/12/21 05:43:00;;;;;;;;;;;20.90;45.40;;;;;;4950777;28;19929;-53
2022/12/21 05:45:25;;;;;;;;;;;20.90;45.30;;;;;;4950825;28;19915;-52
2022/12/21 05:47:51;;;;;;;;;;;20.80;45.60;;;;;;4951789;28;19914;-52
2022/12/21 05:50:16;;;;;;;;;;;20.80;45.70;;;;;;4950884;28;20362;-52
2022/12/21 05:52:42;;;;;;;;;;;20.70;45.80;;;;;;5024694;28;19959;-52
2022/12/21 05:55:07;;;;;;;;;;;20.70;45.90;;;;;;4977346;28;19950;-52
2022/12/21 05:57:33;;;;;;;;;;;20.60;45.90;;;;;;4951098;29;20374;-52
2022/12/21 05:59:58;;;;;;;;;;;20.60;46.10;;;;;;4950554;28;20009;-52
2022/12/21 06:02:24;;;;;;;;;;;20.50;46.20;;;;;;4950872;28;19919;-51
2022/12/21 06:04:49;;;;;;;;;;;20.40;46.20;;;;;;4950725;28;19968;-52
2022/12/21 06:07:15;;;;;;;;;;;20.40;46.30;;;;;;4949950;29;20009;-53
2022/12/21 06:09:40;;;;;;;;;;;20.40;46.40;;;;;;4951062;29;20387;-53
2022/12/21 06:12:06;;;;;;;;;;;20.40;46.40;;;;;;4950512;28;19926;-53
2022/12/21 06:14:31;;;;;;;;;;;20.30;46.50;;;;;;4950634;28;19942;-52
2022/12/21 06:16:57;;;;;;;;;;;20.30;46.60;;;;;;4951330;28;19922;-52
2022/12/21 06:19:22;;;;;;;;;;;20.30;46.60;;;;;;4950787;28;19915;-53
2022/12/21 06:21:47;;;;;;;;;;;20.30;46.50;;;;;;4950713;29;20005;-53
2022/12/21 06:24:13;;;;;;;;;;;20.30;46.60;;;;;;4950029;28;19923;-53
2022/12/21 06:26:38;;;;;;;;;;;20.30;46.60;;;;;;4951072;28;19918;-53
2022/12/21 06:29:04;;;;;;;;;;;20.30;46.60;;;;;;4935851;28;19918;-53
2022/12/21 06:31:29;;;;;;;;;;;20.20;46.60;;;;;;4950393;28;19975;-53
2022/12/21 06:33:55;;;;;;;;;;;20.20;46.70;;;;;;4945293;28;20008;-53
2022/12/21 06:36:20;;;;;;;;;;;20.20;46.60;;;;;;4950305;28;20278;-52
2022/12/21 06:38:46;;;;;;;;;;;20.30;46.50;;;;;;4950119;28;20302;-51
2022/12/21 06:41:11;;;;;;;;;;;20.40;46.40;;;;;;4950414;28;19915;-52
2022/12/21 06:43:37;;;;;;;;;;;20.40;46.20;;;;;;4949713;29;19921;-52
2022/12/21 06:46:07;;;;;;;;;;;20.50;46.10;;;;;;4950897;29;20358;-52
2022/12/21 06:48:32;;;;;;;;;;;20.60;46.00;;;;;;4949992;28;20344;-52
2022/12/21 06:50:58;;;;;;;;;;;20.60;45.80;;;;;;4952475;28;19923;-52
2022/12/21 06:53:24;;;;;;;;;;;20.70;45.60;;;;;;4953635;28;19919;-53
2022/12/21 06:55:50;;;;;;;;;;;20.80;45.50;;;;;;4948709;28;19922;-53
2022/12/21 06:58:15;;;;;;;;;;;20.70;45.50;;;;;;4948556;28;19964;-53
2022/12/21 07:00:41;;;;;;;;;;;20.80;45.40;;;;;;4951775;28;19914;-52
2022/12/21 07:03:06;;;;;;;;;;;20.70;45.50;;;;;;4960653;28;19922;-52
2022/12/21 07:05:32;;;;;;;;;;;20.70;45.70;;;;;;4948784;28;20079;-52
2022/12/21 07:07:57;;;;;;;;;;;20.70;45.60;;;;;;4953930;28;19956;-53
2022/12/21 07:10:23;;;;;;;;;;;20.60;45.80;;;;;;4949682;28;19919;-53
2022/12/21 07:12:49;;;;;;;;;;;20.60;45.80;;;;;;4951296;28;19939;-53
2022/12/21 07:15:14;;;;;;;;;;;20.60;46.00;;;;;;4950322;28;19920;-53
2022/12/21 07:17:39;;;;;;;;;;;20.50;46.00;;;;;;4949762;28;20275;-53
2022/12/21 07:20:05;;;;;;;;;;;20.40;46.10;;;;;;4953257;28;19937;-53
2022/12/21 07:22:31;;;;;;;;;;;20.40;46.10;;;;;;4952808;29;19964;-53
2022/12/21 07:24:56;;;;;;;;;;;20.50;46.10;;;;;;4936248;28;19921;-53
2022/12/21 07:27:22;;;;;;;;;;;20.40;46.20;;;;;;4956504;28;19957;-53
2022/12/21 07:29:48;;;;;;;;;;;20.40;46.20;;;;;;4956690;28;19920;-53
2022/12/21 07:32:13;;;;;;;;;;;20.40;46.10;;;;;;4950833;29;20305;-53
2022/12/21 07:34:39;;;;;;;;;;;20.40;46.00;;;;;;4953097;29;20395;-53
2022/12/21 07:37:04;;;;;;;;;;;20.50;46.00;;;;;;4953637;29;20298;-53
2022/12/21 07:39:30;;;;;;;;;;;20.50;45.90;;;;;;4952975;29;20340;-53
2022/12/21 07:41:55;;;;;;;;;;;20.70;45.60;;;;;;4953037;29;20613;-53
2022/12/21 07:44:20;;;;;;;;;;;20.70;45.60;;;;;;4952412;29;19915;-53
2022/12/21 07:46:46;;;;;;;;;;;20.80;45.40;;;;;;4950558;28;19922;-53
2022/12/21 07:49:11;;;;;;;;;;;20.90;45.20;;;;;;4952265;29;19914;-52
2022/12/21 07:51:37;;;;;;;;;;;20.90;45.20;;;;;;4960460;28;20026;-52
2022/12/21 07:54:02;;;;;;;;;;;20.90;45.10;;;;;;4952171;28;19918;-52
2022/12/21 07:56:28;;;;;;;;;;;21.00;45.20;;;;;;4950656;28;19922;-52
2022/12/21 07:58:53;;;;;;;;;;;21.00;45.20;;;;;;4952661;29;19919;-53
2022/12/21 08:01:19;;;;;;;;;;;21.00;45.20;;;;;;4947765;28;19925;-52
2022/12/21 08:03:45;;;;;;;;;;;21.00;45.20;;;;;;4947507;29;19926;-53
2022/12/21 08:06:10;;;;;;;;;;;21.00;45.30;;;;;;4947860;28;21533;-52
2022/12/21 08:08:36;;;;;;;;;;;20.90;45.10;;;;;;4949518;28;19950;-52
2022/12/21 08:11:01;;;;;;;;;;;20.90;45.10;;;;;;4961063;28;19925;-52
2022/12/21 08:13:27;;;;;;;;;;;20.80;45.10;;;;;;4952391;28;20434;-52
2022/12/21 08:16:02;;;;;;;;;;;20.70;45.30;;;;;;4949282;28;19922;-53
2022/12/21 08:18:28;;;;;;;;;;;20.70;45.50;;;;;;4948575;28;20009;-52
2022/12/21 08:20:54;;;;;;;;;;;20.70;45.60;;;;;;4951815;28;20024;-52
2022/12/21 08:23:19;;;;;;;;;;;21.20;45.10;;;;;;4955107;28;19919;-52
2022/12/21 08:25:45;;;;;;;;;;;21.80;43.80;;;;;;4956441;28;19918;-52
2022/12/21 08:28:11;;;;;;;;;;;22.40;42.70;;;;;;4959280;28;19918;-52
2022/12/21 08:30:38;;;;;;;;;;;22.90;41.80;;;;;;4952258;28;20080;-52
2022/12/21 08:33:03;;;;;;;;;;;23.20;41.40;;;;;;4965613;28;20330;-54
2022/12/21 08:35:28;;;;;;;;;;;23.40;40.90;;;;;;4949778;28;19918;-54
2022/12/21 08:37:54;;;;;;;;;;;23.50;40.60;;;;;;4965415;28;19918;-53
2022/12/21 08:40:19;;;;;;;;;;;23.80;40.40;;;;;;4950008;28;19923;-54
2022/12/21 08:42:45;;;;;;;;;;;23.90;40.10;;;;;;4950561;28;19919;-54
2022/12/21 08:45:10;;;;;;;;;;;24.00;39.90;;;;;;4959530;28;19918;-52
2022/12/21 08:47:36;;;;;;;;;;;24.10;39.80;;;;;;4952507;29;19910;-53
2022/12/21 08:50:02;;;;;;;;;;;24.20;39.70;;;;;;4951611;28;20056;-53
2022/12/21 08:52:27;;;;;;;;;;;24.30;39.60;;;;;;4951623;28;19961;-52
2022/12/21 08:54:53;;;;;;;;;;;24.30;39.60;;;;;;4955395;28;19957;-54
2022/12/21 08:57:18;;;;;;;;;;;24.30;39.40;;;;;;4950396;28;19918;-53
2022/12/21 08:59:44;;;;;;;;;;;24.40;39.40;;;;;;4951145;28;20005;-52
2022/12/21 09:02:10;;;;;;;;;;;24.40;39.40;;;;;;4950901;29;19925;-52
2022/12/21 09:04:35;;;;;;;;;;;24.50;39.40;;;;;;4950082;29;20007;-55
2022/12/21 09:07:00;;;;;;;;;;;24.50;39.30;;;;;;4951122;29;19918;-52
2022/12/21 09:09:26;;;;;;;;;;;24.50;39.20;;;;;;4951485;29;20384;-53
2022/12/21 09:11:52;;;;;;;;;;;24.60;39.20;;;;;;4950674;28;20558;-52
2022/12/21 09:14:17;;;;;;;;;;;24.60;39.10;;;;;;4960414;28;19927;-52
2022/12/21 09:16:43;;;;;;;;;;;24.70;39.00;;;;;;4948610;28;19946;-55
2022/12/21 09:19:08;;;;;;;;;;;24.70;38.90;;;;;;4951329;29;19910;-54
2022/12/21 09:21:34;;;;;;;;;;;24.80;38.80;;;;;;4948022;28;19961;-53
2022/12/21 09:23:59;;;;;;;;;;;24.80;38.80;;;;;;4951107;28;19926;-53
2022/12/21 09:26:25;;;;;;;;;;;24.80;38.80;;;;;;4951373;28;19950;-52
2022/12/21 09:28:50;;;;;;;;;;;24.90;38.80;;;;;;4951226;29;20382;-53
2022/12/21 09:31:19;;;;;;;;;;;24.90;38.70;;;;;;4950520;29;19963;-53
2022/12/21 09:33:44;;;;;;;;;;;24.90;38.60;;;;;;4935286;28;19919;-53
2022/12/21 09:36:10;;;;;;;;;;;24.90;38.50;;;;;;4950667;28;19918;-52
2022/12/21 09:38:35;;;;;;;;;;;24.90;38.60;;;;;;4943912;28;19933;-52
2022/12/21 09:41:21;;;;;;;;;;;24.90;38.50;;;;;;4966458;28;19956;-53
2022/12/21 09:43:51;;;;;;;;;;;24.90;38.50;;;;;;4959809;28;20017;-53
2022/12/21 09:46:16;;;;;;;;;;;25.00;38.50;;;;;;4956127;28;19914;-53
2022/12/21 09:48:47;;;;;;;;;;;25.00;38.40;;;;;;4955163;28;19921;-52
2022/12/21 09:51:17;;;;;;;;;;;25.00;38.50;;;;;;4961001;28;20389;-52
2022/12/21 09:53:52;;;;;;;;;;;25.00;38.50;;;;;;5050988;28;19909;-53
2022/12/21 09:56:19;;;;;;;;;;;25.10;38.50;;;;;;4967026;28;19921;-52
2022/12/21 09:58:45;;;;;;;;;;;25.10;38.40;;;;;;4949630;29;19948;-53
2022/12/21 10:01:26;;;;;;;;;;;25.20;38.30;;;;;;4952908;28;19918;-52
2022/12/21 10:03:56;;;;;;;;;;;25.10;38.40;;;;;;4949498;28;19911;-52
2022/12/21 10:06:41;;;;;;;;;;;25.20;38.40;;;;;;4948999;28;20298;-53
2022/12/21 10:09:07;;;;;;;;;;;25.20;38.30;;;;;;4956545;28;20255;-51
2022/12/21 10:11:35;;;;;;;;;;;25.30;38.10;;;;;;4947120;28;19930;-53
2022/12/21 10:14:19;;;;;;;;;;;25.20;39.10;;;;;;4951863;28;20001;-53
2022/12/21 10:16:48;;;;;;;;;;;25.10;38.40;;;;;;4946571;28;19919;-53
2022/12/21 10:19:21;;;;;;;;;;;25.20;38.30;;;;;;4949414;28;20378;-54
2022/12/21 10:21:56;;;;;;;;;;;25.20;38.20;;;;;;4965247;28;19933;-54
2022/12/21 10:24:28;;;;;;;;;;;25.20;38.20;;;;;;4934594;28;19968;-53
2022/12/21 10:26:56;;;;;;;;;;;25.30;38.30;;;;;;4956494;28;20017;-53
2022/12/21 10:29:22;;;;;;;;;;;25.30;38.00;;;;;;4949100;28;19918;-54
2022/12/21 10:31:47;;;;;;;;;;;25.30;38.20;;;;;;4953800;28;19925;-53
2022/12/21 10:34:22;;;;;;;;;;;25.30;38.10;;;;;;4948802;28;20007;-53
2022/12/21 10:36:48;;;;;;;;;;;25.30;38.10;;;;;;4951533;28;19954;-53
2022/12/21 10:39:14;;;;;;;;;;;25.30;38.10;;;;;;4952034;28;20394;-54
2022/12/21 10:41:41;;;;;;;;;;;25.40;38.00;;;;;;4986636;28;19913;-55
2022/12/21 10:44:07;;;;;;;;;;;25.40;38.10;;;;;;4961822;28;20005;-54
2022/12/21 10:46:34;;;;;;;;;;;25.30;38.10;;;;;;4952978;28;19957;-53
2022/12/21 10:49:00;;;;;;;;;;;25.30;38.20;;;;;;4987808;28;20377;-53
2022/12/21 10:51:27;;;;;;;;;;;25.40;38.30;;;;;;4970311;28;19920;-53
2022/12/21 10:53:56;;;;;;;;;;;25.40;38.20;;;;;;4948891;28;19914;-52
2022/12/21 10:56:21;;;;;;;;;;;25.50;38.10;;;;;;4953703;28;20005;-53
2022/12/21 10:58:49;;;;;;;;;;;25.50;38.30;;;;;;4935085;29;20014;-53
2022/12/21 11:01:14;;;;;;;;;;;25.50;38.50;;;;;;4973489;28;19918;-53
2022/12/21 11:03:40;;;;;;;;;;;25.60;38.50;;;;;;4960966;28;19941;-54
2022/12/21 11:06:13;;;;;;;;;;;25.60;38.40;;;;;;4961250;28;20397;-54
2022/12/21 11:08:45;;;;;;;;;;;25.70;38.30;;;;;;4953366;28;19915;-54
2022/12/21 11:11:46;;;;;;;;;;;25.70;38.20;;;;;;4943227;28;19919;-53
2022/12/21 11:14:12;;;;;;;;;;;25.70;38.30;;;;;;4951201;28;19934;-53
2022/12/21 11:16:38;;;;;;;;;;;25.70;38.50;;;;;;4943582;28;20306;-53
2022/12/21 11:19:03;;;;;;;;;;;25.70;38.70;;;;;;4955823;28;19917;-52
2022/12/21 11:21:48;;;;;;;;;;;25.70;38.50;;;;;;4953530;28;19919;-53
2022/12/21 11:24:14;;;;;;;;;;;25.70;38.70;;;;;;4954422;28;20426;-53
2022/12/21 11:26:46;;;;;;;;;;;25.70;38.70;;;;;;4954490;28;19929;-53
2022/12/21 11:29:14;;;;;;;;;;;25.80;38.70;;;;;;4949198;28;19925;-53
2022/12/21 11:31:40;;;;;;;;;;;25.80;38.70;;;;;;4948424;28;19922;-55
2022/12/21 11:34:11;;;;;;;;;;;25.80;38.50;;;;;;4950011;29;19986;-53
2022/12/21 11:36:52;;;;;;;;;;;25.80;38.70;;;;;;4971921;28;19945;-53
2022/12/21 11:39:20;;;;;;;;;;;25.90;38.50;;;;;;4949761;28;19922;-53
2022/12/21 11:41:49;;;;;;;;;;;25.90;38.70;;;;;;4952100;28;20422;-53
2022/12/21 11:44:16;;;;;;;;;;;25.90;38.60;;;;;;4956698;28;19919;-53
2022/12/21 11:46:45;;;;;;;;;;;25.90;38.60;;;;;;4953232;28;19915;-53
2022/12/21 11:49:16;;;;;;;;;;;25.90;38.70;;;;;;4963972;28;19919;-52
2022/12/21 11:51:45;;;;;;;;;;;25.70;38.90;;;;;;4946823;28;19964;-53
2022/12/21 11:54:29;;;;;;;;;;;25.50;39.40;;;;;;4953876;28;19919;-52
2022/12/21 11:56:59;;;;;;;;;;;25.30;39.90;;;;;;4956968;28;19918;-53
2022/12/21 11:59:43;;;;;;;;;;;25.00;40.40;;;;;;4948343;29;19915;-52
2022/12/21 12:02:17;;;;;;;;;;;24.80;40.90;;;;;;4947795;28;20401;-53
2022/12/21 12:04:55;;;;;;;;;;;24.50;41.60;;;;;;4953803;28;19915;-54
2022/12/21 12:07:23;;;;;;;;;;;24.30;42.20;;;;;;4950945;28;19960;-54
2022/12/21 12:09:48;;;;;;;;;;;24.00;42.40;;;;;;4963911;28;19921;-53
2022/12/21 12:12:29;;;;;;;;;;;23.80;42.80;;;;;;4959023;28;20279;-53
2022/12/21 12:15:13;;;;;;;;;;;23.60;43.00;;;;;;4970746;28;19932;-53
2022/12/21 12:17:57;;;;;;;;;;;23.40;42.90;;;;;;4973778;28;19918;-52
2022/12/21 12:20:28;;;;;;;;;;;23.30;43.30;;;;;;4948073;28;20045;-53
2022/12/21 12:22:54;;;;;;;;;;;23.10;43.60;;;;;;4952646;28;19915;-53
2022/12/21 12:25:19;;;;;;;;;;;23.00;43.80;;;;;;4954332;28;19918;-52
2022/12/21 12:28:05;;;;;;;;;;;22.90;44.40;;;;;;4954254;28;19914;-53
2022/12/21 12:30:37;;;;;;;;;;;22.70;44.30;;;;;;4980925;28;20369;-53
2022/12/21 12:33:14;;;;;;;;;;;22.60;44.80;;;;;;4943839;28;19914;-54
2022/12/21 12:35:42;;;;;;;;;;;22.50;44.90;;;;;;4957992;28;19918;-54
2022/12/21 12:38:15;;;;;;;;;;;22.50;44.80;;;;;;4963321;28;20289;-52
2022/12/21 12:40:56;;;;;;;;;;;22.40;45.00;;;;;;4952498;28;19918;-53
2022/12/21 12:43:25;;;;;;;;;;;22.40;45.50;;;;;;4931898;28;19915;-53
2022/12/21 12:45:54;;;;;;;;;;;22.40;45.50;;;;;;4933469;28;19924;-53
2022/12/21 12:48:24;;;;;;;;;;;22.50;45.40;;;;;;4962871;28;20342;-54
2022/12/21 12:50:55;;;;;;;;;;;22.70;45.10;;;;;;4952957;28;20436;-54
2022/12/21 12:53:30;;;;;;;;;;;22.90;44.60;;;;;;4949099;28;19949;-53
2022/12/21 12:56:11;;;;;;;;;;;23.20;44.00;;;;;;4960960;28;19914;-53
2022/12/21 12:58:39;;;;;;;;;;;23.50;43.50;;;;;;4960555;28;19918;-53
2022/12/21 13:01:17;;;;;;;;;;;23.60;43.30;;;;;;4961479;28;20374;-54
2022/12/21 13:04:01;;;;;;;;;;;23.70;43.00;;;;;;4949447;28;19963;-53
2022/12/21 13:06:29;;;;;;;;;;;23.70;43.00;;;;;;4953641;28;19945;-52
2022/12/21 13:09:07;;;;;;;;;;;23.70;43.00;;;;;;4948359;28;20371;-53
2022/12/21 13:11:39;;;;;;;;;;;23.70;43.10;;;;;;4952618;28;19923;-53
2022/12/21 13:14:08;;;;;;;;;;;23.60;43.30;;;;;;4952843;28;20397;-53
2022/12/21 13:16:49;;;;;;;;;;;23.50;43.40;;;;;;4954884;28;19922;-53
2022/12/21 13:19:16;;;;;;;;;;;23.30;43.60;;;;;;4947182;28;19918;-52
2022/12/21 13:21:42;;;;;;;;;;;23.20;44.10;;;;;;4953575;28;20455;-52
2022/12/21 13:24:10;;;;;;;;;;;23.10;44.30;;;;;;4949669;28;19922;-52
2022/12/21 13:26:38;;;;;;;;;;;22.90;44.40;;;;;;4950994;28;19915;-53
2022/12/21 13:29:05;;;;;;;;;;;22.80;44.70;;;;;;4950008;28;19919;-53
2022/12/21 13:31:57;;;;;;;;;;;22.70;44.80;;;;;;4951108;28;20000;-54
2022/12/21 13:34:25;;;;;;;;;;;22.70;45.10;;;;;;4970303;28;19915;-53
2022/12/21 13:36:50;;;;;;;;;;;22.60;45.10;;;;;;4979514;28;19966;-53
2022/12/21 13:39:16;;;;;;;;;;;22.60;45.20;;;;;;4956018;28;19958;-53
2022/12/21 13:41:50;;;;;;;;;;;22.60;45.20;;;;;;4946845;28;19922;-53
2022/12/21 13:44:23;;;;;;;;;;;22.60;45.20;;;;;;4950891;28;20438;-52
2022/12/21 13:46:49;;;;;;;;;;;22.60;45.20;;;;;;4947991;28;19959;-52
2022/12/21 13:49:19;;;;;;;;;;;22.70;45.10;;;;;;4944549;28;19918;-53
2022/12/21 13:51:54;;;;;;;;;;;22.80;44.90;;;;;;4965072;28;19922;-53
2022/12/21 13:54:22;;;;;;;;;;;22.90;44.80;;;;;;4957249;28;19953;-52
2022/12/21 13:56:51;;;;;;;;;;;22.80;44.70;;;;;;4939457;28;19915;-52
2022/12/21 13:59:29;;;;;;;;;;;22.90;44.70;;;;;;4957488;28;19990;-53
2022/12/21 14:01:59;;;;;;;;;;;22.90;44.60;;;;;;4949154;28;19999;-53
2022/12/21 14:04:44;;;;;;;;;;;22.80;44.70;;;;;;4956969;28;19958;-54
2022/12/21 14:07:18;;;;;;;;;;;22.70;44.80;;;;;;4910616;28;19926;-51
2022/12/21 14:09:50;;;;;;;;;;;22.70;44.90;;;;;;4908389;28;21268;-52
2022/12/21 14:12:18;;;;;;;;;;;22.60;45.00;;;;;;4922664;29;20071;-54
2022/12/21 14:14:46;;;;;;;;;;;22.60;45.20;;;;;;4908321;29;19915;-54
2022/12/21 14:17:16;;;;;;;;;;;22.60;45.20;;;;;;4915471;29;19962;-53
2022/12/21 14:19:52;;;;;;;;;;;22.50;45.20;;;;;;4924698;29;19930;-53
2022/12/21 14:22:29;;;;;;;;;;;22.50;45.40;;;;;;4919028;28;20050;-52
2022/12/21 14:24:59;;;;;;;;;;;22.40;45.40;;;;;;4927488;29;19919;-54
2022/12/21 14:27:24;;;;;;;;;;;22.40;45.50;;;;;;4915270;28;19915;-53
2022/12/21 14:29:49;;;;;;;;;;;22.40;45.30;;;;;;4924809;28;20290;-53
2022/12/21 14:32:19;;;;;;;;;;;22.40;45.50;;;;;;4917377;29;20331;-53
2022/12/21 14:34:48;;;;;;;;;;;22.40;45.30;;;;;;4916434;28;20379;-53
2022/12/21 14:37:13;;;;;;;;;;;22.50;45.40;;;;;;4915830;29;19915;-54